sensor_id;sensor_type;location;lat;lon;timestamp;P1;durP1;ratioP1;P2;durP2;ratioP2
60336;SDS011;46978;50.288;28.624;2022-11-04T00:00:08;12.51;;;7.17;;
60336;SDS011;46978;50.288;28.624;2022-11-04T00:01:11;14.51;;;6.99;;
60336;SDS011;46978;50.288;28.624;2022-11-04T00:02:13;13.02;;;6.75;;
60336;SDS011;46978;50.288;28.624;2022-11-04T00:03:14;13.90;;;7.43;;
60336;SDS011;46978;50.288;28.624;2022-11-04T00:04:16;12.93;;;7.05;;
60336;SDS011;46978;50.288;28.624;2022-11-04T00:05:20;12.73;;;7.06;;
60336;SDS011;46978;50.288;28.624;2022-11-04T00:06:22;13.59;;;7.65;;
60336;SDS011;46978;50.288;28.624;2022-11-04T00:07:24;14.29;;;7.43;;
60336;SDS011;46978;50.288;28.624;2022-11-04T00:08:26;12.51;;;7.55;;
60336;SDS011;46978;50.288;28.624;2022-11-04T00:09:28;13.47;;;6.99;;
60336;SDS011;46978;50.288;28.624;2022-11-04T00:10:31;12.73;;;6.86;;
60336;SDS011;46978;50.288;28.624;2022-11-04T00:11:32;12.83;;;7.14;;
60336;SDS011;46978;50.288;28.624;2022-11-04T00:12:34;14.25;;;6.87;;
60336;SDS011;46978;50.288;28.624;2022-11-04T00:13:36;11.81;;;6.86;;
60336;SDS011;46978;50.288;28.624;2022-11-04T00:14:37;12.06;;;6.92;;
60336;SDS011;46978;50.288;28.624;2022-11-04T00:15:39;13.74;;;7.18;;
60336;SDS011;46978;50.288;28.624;2022-11-04T00:16:41;11.99;;;6.59;;
60336;SDS011;46978;50.288;28.624;2022-11-04T00:17:43;14.49;;;7.34;;
60336;SDS011;46978;50.288;28.624;2022-11-04T00:18:45;13.98;;;7.55;;
60336;SDS011;46978;50.288;28.624;2022-11-04T00:19:48;13.68;;;6.80;;
60336;SDS011;46978;50.288;28.624;2022-11-04T00:20:51;13.39;;;7.70;;
60336;SDS011;46978;50.288;28.624;2022-11-04T00:21:53;14.40;;;7.69;;
60336;SDS011;46978;50.288;28.624;2022-11-04T00:22:55;12.24;;;7.01;;
60336;SDS011;46978;50.288;28.624;2022-11-04T00:23:57;12.11;;;7.39;;
60336;SDS011;46978;50.288;28.624;2022-11-04T00:24:58;13.76;;;7.61;;
60336;SDS011;46978;50.288;28.624;2022-11-04T00:26:00;14.33;;;7.57;;
60336;SDS011;46978;50.288;28.624;2022-11-04T00:27:02;13.85;;;7.21;;
60336;SDS011;46978;50.288;28.624;2022-11-04T00:28:11;14.58;;;7.33;;
60336;SDS011;46978;50.288;28.624;2022-11-04T00:29:14;14.07;;;6.72;;
60336;SDS011;46978;50.288;28.624;2022-11-04T00:30:16;13.67;;;6.78;;
60336;SDS011;46978;50.288;28.624;2022-11-04T00:31:18;11.96;;;6.75;;
60336;SDS011;46978;50.288;28.624;2022-11-04T00:32:19;13.86;;;7.36;;
60336;SDS011;46978;50.288;28.624;2022-11-04T00:33:21;12.32;;;6.19;;
60336;SDS011;46978;50.288;28.624;2022-11-04T00:34:23;12.43;;;6.79;;
60336;SDS011;46978;50.288;28.624;2022-11-04T00:35:24;13.17;;;6.92;;
60336;SDS011;46978;50.288;28.624;2022-11-04T00:36:26;15.62;;;7.13;;
60336;SDS011;46978;50.288;28.624;2022-11-04T00:37:27;10.47;;;6.47;;
60336;SDS011;46978;50.288;28.624;2022-11-04T00:38:29;13.45;;;7.27;;
60336;SDS011;46978;50.288;28.624;2022-11-04T00:39:31;10.74;;;6.91;;
60336;SDS011;46978;50.288;28.624;2022-11-04T00:40:33;11.43;;;6.75;;
60336;SDS011;46978;50.288;28.624;2022-11-04T00:41:34;12.66;;;6.46;;
60336;SDS011;46978;50.288;28.624;2022-11-04T00:42:36;13.95;;;7.54;;
60336;SDS011;46978;50.288;28.624;2022-11-04T00:43:38;14.63;;;7.52;;
60336;SDS011;46978;50.288;28.624;2022-11-04T00:44:39;20.19;;;9.21;;
60336;SDS011;46978;50.288;28.624;2022-11-04T00:45:41;19.31;;;8.62;;
60336;SDS011;46978;50.288;28.624;2022-11-04T00:46:43;15.31;;;8.36;;
60336;SDS011;46978;50.288;28.624;2022-11-04T00:47:45;13.42;;;7.46;;
60336;SDS011;46978;50.288;28.624;2022-11-04T00:48:47;13.47;;;7.93;;
60336;SDS011;46978;50.288;28.624;2022-11-04T00:49:49;15.51;;;7.99;;
60336;SDS011;46978;50.288;28.624;2022-11-04T00:50:51;13.45;;;7.71;;
60336;SDS011;46978;50.288;28.624;2022-11-04T00:51:53;13.49;;;6.99;;
60336;SDS011;46978;50.288;28.624;2022-11-04T00:53:02;12.84;;;7.14;;
60336;SDS011;46978;50.288;28.624;2022-11-04T00:54:01;12.77;;;7.29;;
60336;SDS011;46978;50.288;28.624;2022-11-04T00:55:03;14.21;;;7.48;;
60336;SDS011;46978;50.288;28.624;2022-11-04T00:56:06;12.21;;;7.55;;
60336;SDS011;46978;50.288;28.624;2022-11-04T00:57:08;14.31;;;7.33;;
60336;SDS011;46978;50.288;28.624;2022-11-04T00:58:11;15.27;;;6.99;;
60336;SDS011;46978;50.288;28.624;2022-11-04T00:59:12;12.19;;;6.89;;
60336;SDS011;46978;50.288;28.624;2022-11-04T01:00:15;12.05;;;6.65;;
60336;SDS011;46978;50.288;28.624;2022-11-04T01:01:17;11.67;;;7.35;;
60336;SDS011;46978;50.288;28.624;2022-11-04T01:02:19;12.07;;;6.59;;
60336;SDS011;46978;50.288;28.624;2022-11-04T01:03:21;11.34;;;6.75;;
60336;SDS011;46978;50.288;28.624;2022-11-04T01:04:23;12.39;;;6.99;;
60336;SDS011;46978;50.288;28.624;2022-11-04T01:05:24;12.27;;;6.61;;
60336;SDS011;46978;50.288;28.624;2022-11-04T01:06:27;11.89;;;7.03;;
60336;SDS011;46978;50.288;28.624;2022-11-04T01:07:28;16.23;;;7.20;;
60336;SDS011;46978;50.288;28.624;2022-11-04T01:08:31;13.12;;;7.10;;
60336;SDS011;46978;50.288;28.624;2022-11-04T01:09:33;12.81;;;7.07;;
60336;SDS011;46978;50.288;28.624;2022-11-04T01:10:35;13.26;;;7.51;;
60336;SDS011;46978;50.288;28.624;2022-11-04T01:11:37;13.03;;;7.16;;
60336;SDS011;46978;50.288;28.624;2022-11-04T01:13:00;10.36;;;6.01;;
60336;SDS011;46978;50.288;28.624;2022-11-04T01:14:02;13.35;;;6.95;;
60336;SDS011;46978;50.288;28.624;2022-11-04T01:15:04;13.86;;;6.95;;
60336;SDS011;46978;50.288;28.624;2022-11-04T01:16:08;15.06;;;7.41;;
60336;SDS011;46978;50.288;28.624;2022-11-04T01:17:11;10.71;;;6.76;;
60336;SDS011;46978;50.288;28.624;2022-11-04T01:18:12;13.87;;;6.81;;
60336;SDS011;46978;50.288;28.624;2022-11-04T01:19:14;12.09;;;6.61;;
60336;SDS011;46978;50.288;28.624;2022-11-04T01:20:17;13.03;;;7.41;;
60336;SDS011;46978;50.288;28.624;2022-11-04T01:21:18;13.87;;;6.75;;
60336;SDS011;46978;50.288;28.624;2022-11-04T01:22:20;11.37;;;6.49;;
60336;SDS011;46978;50.288;28.624;2022-11-04T01:23:22;11.91;;;6.79;;
60336;SDS011;46978;50.288;28.624;2022-11-04T01:24:23;12.41;;;6.89;;
60336;SDS011;46978;50.288;28.624;2022-11-04T01:25:25;11.88;;;7.39;;
60336;SDS011;46978;50.288;28.624;2022-11-04T01:26:27;12.50;;;7.26;;
60336;SDS011;46978;50.288;28.624;2022-11-04T01:27:29;12.47;;;7.10;;
60336;SDS011;46978;50.288;28.624;2022-11-04T01:28:30;12.96;;;7.19;;
60336;SDS011;46978;50.288;28.624;2022-11-04T01:29:32;12.47;;;6.80;;
60336;SDS011;46978;50.288;28.624;2022-11-04T01:30:36;13.45;;;7.11;;
60336;SDS011;46978;50.288;28.624;2022-11-04T01:31:38;12.85;;;6.74;;
60336;SDS011;46978;50.288;28.624;2022-11-04T01:32:40;17.36;;;7.22;;
60336;SDS011;46978;50.288;28.624;2022-11-04T01:33:42;12.05;;;7.16;;
60336;SDS011;46978;50.288;28.624;2022-11-04T01:34:44;14.14;;;7.49;;
60336;SDS011;46978;50.288;28.624;2022-11-04T01:35:46;13.35;;;7.47;;
60336;SDS011;46978;50.288;28.624;2022-11-04T01:36:48;13.55;;;7.34;;
60336;SDS011;46978;50.288;28.624;2022-11-04T01:37:49;13.44;;;7.46;;
60336;SDS011;46978;50.288;28.624;2022-11-04T01:38:51;14.54;;;8.66;;
60336;SDS011;46978;50.288;28.624;2022-11-04T01:39:55;14.95;;;8.84;;
60336;SDS011;46978;50.288;28.624;2022-11-04T01:40:57;21.58;;;13.05;;
60336;SDS011;46978;50.288;28.624;2022-11-04T01:41:59;28.96;;;16.17;;
60336;SDS011;46978;50.288;28.624;2022-11-04T01:43:01;29.52;;;16.39;;
60336;SDS011;46978;50.288;28.624;2022-11-04T01:44:04;31.85;;;19.27;;
60336;SDS011;46978;50.288;28.624;2022-11-04T01:45:25;30.87;;;16.14;;
60336;SDS011;46978;50.288;28.624;2022-11-04T01:46:41;29.06;;;16.82;;
60336;SDS011;46978;50.288;28.624;2022-11-04T01:49:16;26.56;;;14.86;;
60336;SDS011;46978;50.288;28.624;2022-11-04T01:50:21;27.05;;;14.91;;
60336;SDS011;46978;50.288;28.624;2022-11-04T01:51:28;30.58;;;15.86;;
60336;SDS011;46978;50.288;28.624;2022-11-04T01:52:35;26.82;;;13.31;;
60336;SDS011;46978;50.288;28.624;2022-11-04T01:53:44;21.54;;;12.36;;
60336;SDS011;46978;50.288;28.624;2022-11-04T01:54:47;26.72;;;13.49;;
60336;SDS011;46978;50.288;28.624;2022-11-04T01:55:52;27.36;;;13.13;;
60336;SDS011;46978;50.288;28.624;2022-11-04T01:56:56;20.49;;;12.81;;
60336;SDS011;46978;50.288;28.624;2022-11-04T01:58:06;26.38;;;12.41;;
60336;SDS011;46978;50.288;28.624;2022-11-04T01:59:07;22.86;;;11.82;;
60336;SDS011;46978;50.288;28.624;2022-11-04T02:00:11;22.65;;;12.83;;
60336;SDS011;46978;50.288;28.624;2022-11-04T02:01:14;24.66;;;12.14;;
60336;SDS011;46978;50.288;28.624;2022-11-04T02:02:16;26.42;;;12.68;;
60336;SDS011;46978;50.288;28.624;2022-11-04T02:03:18;22.72;;;11.53;;
60336;SDS011;46978;50.288;28.624;2022-11-04T02:04:23;24.07;;;12.61;;
60336;SDS011;46978;50.288;28.624;2022-11-04T02:05:25;27.19;;;15.89;;
60336;SDS011;46978;50.288;28.624;2022-11-04T02:06:48;32.52;;;16.83;;
60336;SDS011;46978;50.288;28.624;2022-11-04T02:07:53;25.00;;;15.58;;
60336;SDS011;46978;50.288;28.624;2022-11-04T02:08:57;27.50;;;15.58;;
60336;SDS011;46978;50.288;28.624;2022-11-04T02:09:59;32.47;;;18.00;;
60336;SDS011;46978;50.288;28.624;2022-11-04T02:11:01;59.32;;;30.97;;
60336;SDS011;46978;50.288;28.624;2022-11-04T02:12:04;44.76;;;24.45;;
60336;SDS011;46978;50.288;28.624;2022-11-04T02:13:06;37.44;;;20.12;;
60336;SDS011;46978;50.288;28.624;2022-11-04T02:14:08;27.90;;;16.51;;
60336;SDS011;46978;50.288;28.624;2022-11-04T02:15:10;26.76;;;16.25;;
60336;SDS011;46978;50.288;28.624;2022-11-04T02:16:45;30.17;;;17.16;;
60336;SDS011;46978;50.288;28.624;2022-11-04T02:17:29;30.02;;;18.48;;
60336;SDS011;46978;50.288;28.624;2022-11-04T02:22:05;35.11;;;19.77;;
60336;SDS011;46978;50.288;28.624;2022-11-04T02:23:43;26.86;;;16.52;;
60336;SDS011;46978;50.288;28.624;2022-11-04T02:26:23;22.29;;;12.66;;
60336;SDS011;46978;50.288;28.624;2022-11-04T02:32:40;16.50;;;10.19;;
60336;SDS011;46978;50.288;28.624;2022-11-04T02:33:51;18.83;;;9.89;;
60336;SDS011;46978;50.288;28.624;2022-11-04T02:34:56;21.41;;;10.13;;
60336;SDS011;46978;50.288;28.624;2022-11-04T02:36:04;15.38;;;9.93;;
60336;SDS011;46978;50.288;28.624;2022-11-04T02:38:44;17.41;;;9.50;;
60336;SDS011;46978;50.288;28.624;2022-11-04T02:39:54;15.83;;;9.45;;
60336;SDS011;46978;50.288;28.624;2022-11-04T02:44:50;17.49;;;9.61;;
60336;SDS011;46978;50.288;28.624;2022-11-04T02:46:04;18.38;;;10.92;;
60336;SDS011;46978;50.288;28.624;2022-11-04T02:47:24;16.17;;;9.77;;
60336;SDS011;46978;50.288;28.624;2022-11-04T02:50:55;14.72;;;9.07;;
60336;SDS011;46978;50.288;28.624;2022-11-04T02:52:10;17.19;;;10.32;;
60336;SDS011;46978;50.288;28.624;2022-11-04T02:53:21;18.83;;;10.73;;
60336;SDS011;46978;50.288;28.624;2022-11-04T02:54:44;18.86;;;10.43;;
60336;SDS011;46978;50.288;28.624;2022-11-04T02:55:49;19.58;;;11.37;;
60336;SDS011;46978;50.288;28.624;2022-11-04T02:56:53;21.01;;;12.64;;
60336;SDS011;46978;50.288;28.624;2022-11-04T02:57:58;25.12;;;13.02;;
60336;SDS011;46978;50.288;28.624;2022-11-04T02:59:03;29.84;;;14.94;;
60336;SDS011;46978;50.288;28.624;2022-11-04T03:00:08;31.50;;;17.96;;
60336;SDS011;46978;50.288;28.624;2022-11-04T03:01:13;35.64;;;19.82;;
60336;SDS011;46978;50.288;28.624;2022-11-04T03:02:19;29.35;;;17.39;;
60336;SDS011;46978;50.288;28.624;2022-11-04T03:03:27;30.57;;;15.96;;
60336;SDS011;46978;50.288;28.624;2022-11-04T03:04:33;27.51;;;16.07;;
60336;SDS011;46978;50.288;28.624;2022-11-04T03:05:37;26.68;;;15.99;;
60336;SDS011;46978;50.288;28.624;2022-11-04T03:06:41;26.98;;;15.32;;
60336;SDS011;46978;50.288;28.624;2022-11-04T03:07:45;27.55;;;15.94;;
60336;SDS011;46978;50.288;28.624;2022-11-04T03:08:50;27.05;;;15.76;;
60336;SDS011;46978;50.288;28.624;2022-11-04T03:09:58;24.81;;;14.64;;
60336;SDS011;46978;50.288;28.624;2022-11-04T03:11:05;24.56;;;14.17;;
60336;SDS011;46978;50.288;28.624;2022-11-04T03:12:06;22.61;;;12.95;;
60336;SDS011;46978;50.288;28.624;2022-11-04T03:13:15;44.98;;;23.56;;
60336;SDS011;46978;50.288;28.624;2022-11-04T03:14:19;50.03;;;25.84;;
60336;SDS011;46978;50.288;28.624;2022-11-04T03:15:28;48.89;;;26.24;;
60336;SDS011;46978;50.288;28.624;2022-11-04T03:17:55;35.84;;;19.17;;
60336;SDS011;46978;50.288;28.624;2022-11-04T03:19:16;34.92;;;17.92;;
60336;SDS011;46978;50.288;28.624;2022-11-04T03:20:20;31.25;;;16.88;;
60336;SDS011;46978;50.288;28.624;2022-11-04T03:21:24;29.43;;;15.98;;
60336;SDS011;46978;50.288;28.624;2022-11-04T03:22:29;24.71;;;13.94;;
60336;SDS011;46978;50.288;28.624;2022-11-04T03:23:34;23.53;;;14.28;;
60336;SDS011;46978;50.288;28.624;2022-11-04T03:24:36;22.49;;;13.99;;
60336;SDS011;46978;50.288;28.624;2022-11-04T03:25:40;24.10;;;13.48;;
60336;SDS011;46978;50.288;28.624;2022-11-04T03:28:04;23.77;;;12.98;;
60336;SDS011;46978;50.288;28.624;2022-11-04T03:29:16;24.52;;;12.41;;
60336;SDS011;46978;50.288;28.624;2022-11-04T03:30:24;22.66;;;12.75;;
60336;SDS011;46978;50.288;28.624;2022-11-04T03:31:27;23.29;;;12.89;;
60336;SDS011;46978;50.288;28.624;2022-11-04T03:33:49;25.80;;;14.92;;
60336;SDS011;46978;50.288;28.624;2022-11-04T03:34:52;29.15;;;14.70;;
60336;SDS011;46978;50.288;28.624;2022-11-04T03:35:54;26.79;;;14.19;;
60336;SDS011;46978;50.288;28.624;2022-11-04T03:36:56;25.65;;;15.21;;
60336;SDS011;46978;50.288;28.624;2022-11-04T03:37:59;26.36;;;14.48;;
60336;SDS011;46978;50.288;28.624;2022-11-04T03:39:01;22.03;;;13.48;;
60336;SDS011;46978;50.288;28.624;2022-11-04T03:40:03;25.35;;;14.03;;
60336;SDS011;46978;50.288;28.624;2022-11-04T03:41:07;30.89;;;15.00;;
60336;SDS011;46978;50.288;28.624;2022-11-04T03:42:11;25.22;;;14.82;;
60336;SDS011;46978;50.288;28.624;2022-11-04T03:43:19;28.59;;;15.51;;
60336;SDS011;46978;50.288;28.624;2022-11-04T03:44:19;30.46;;;17.44;;
60336;SDS011;46978;50.288;28.624;2022-11-04T03:45:22;30.81;;;17.17;;
60336;SDS011;46978;50.288;28.624;2022-11-04T03:46:24;32.69;;;17.27;;
60336;SDS011;46978;50.288;28.624;2022-11-04T03:47:28;28.33;;;16.04;;
60336;SDS011;46978;50.288;28.624;2022-11-04T03:48:30;28.95;;;16.41;;
60336;SDS011;46978;50.288;28.624;2022-11-04T03:49:32;31.30;;;17.03;;
60336;SDS011;46978;50.288;28.624;2022-11-04T03:50:44;27.57;;;16.32;;
60336;SDS011;46978;50.288;28.624;2022-11-04T03:51:48;32.96;;;17.51;;
60336;SDS011;46978;50.288;28.624;2022-11-04T03:52:51;28.89;;;17.05;;
60336;SDS011;46978;50.288;28.624;2022-11-04T03:53:53;28.42;;;16.81;;
60336;SDS011;46978;50.288;28.624;2022-11-04T03:54:56;30.86;;;16.67;;
60336;SDS011;46978;50.288;28.624;2022-11-04T03:56:08;31.87;;;17.15;;
60336;SDS011;46978;50.288;28.624;2022-11-04T04:05:30;25.65;;;12.77;;
60336;SDS011;46978;50.288;28.624;2022-11-04T04:06:35;28.40;;;13.77;;
60336;SDS011;46978;50.288;28.624;2022-11-04T04:07:38;27.39;;;13.01;;
60336;SDS011;46978;50.288;28.624;2022-11-04T04:09:55;26.52;;;12.75;;
60336;SDS011;46978;50.288;28.624;2022-11-04T04:14:45;23.72;;;12.07;;
60336;SDS011;46978;50.288;28.624;2022-11-04T04:16:00;24.55;;;12.38;;
60336;SDS011;46978;50.288;28.624;2022-11-04T04:17:04;21.76;;;12.48;;
60336;SDS011;46978;50.288;28.624;2022-11-04T04:18:09;23.64;;;12.54;;
60336;SDS011;46978;50.288;28.624;2022-11-04T04:19:15;22.70;;;12.39;;
60336;SDS011;46978;50.288;28.624;2022-11-04T04:20:20;21.03;;;11.89;;
60336;SDS011;46978;50.288;28.624;2022-11-04T04:21:27;19.89;;;11.59;;
60336;SDS011;46978;50.288;28.624;2022-11-04T04:22:32;21.01;;;11.32;;
60336;SDS011;46978;50.288;28.624;2022-11-04T04:23:36;24.37;;;12.14;;
60336;SDS011;46978;50.288;28.624;2022-11-04T04:24:41;24.79;;;11.21;;
60336;SDS011;46978;50.288;28.624;2022-11-04T04:25:45;24.06;;;11.94;;
60336;SDS011;46978;50.288;28.624;2022-11-04T04:26:47;24.57;;;12.13;;
60336;SDS011;46978;50.288;28.624;2022-11-04T04:27:52;21.56;;;11.23;;
60336;SDS011;46978;50.288;28.624;2022-11-04T04:28:58;23.20;;;12.88;;
60336;SDS011;46978;50.288;28.624;2022-11-04T04:30:08;20.43;;;11.86;;
60336;SDS011;46978;50.288;28.624;2022-11-04T04:31:13;27.47;;;12.16;;
60336;SDS011;46978;50.288;28.624;2022-11-04T04:32:16;20.68;;;10.98;;
60336;SDS011;46978;50.288;28.624;2022-11-04T04:33:20;23.40;;;11.41;;
60336;SDS011;46978;50.288;28.624;2022-11-04T04:34:28;22.16;;;11.51;;
60336;SDS011;46978;50.288;28.624;2022-11-04T04:35:34;23.07;;;12.03;;
60336;SDS011;46978;50.288;28.624;2022-11-04T04:36:41;20.18;;;11.23;;
60336;SDS011;46978;50.288;28.624;2022-11-04T04:37:46;26.06;;;13.84;;
60336;SDS011;46978;50.288;28.624;2022-11-04T04:38:49;21.94;;;11.94;;
60336;SDS011;46978;50.288;28.624;2022-11-04T04:39:52;24.38;;;11.91;;
60336;SDS011;46978;50.288;28.624;2022-11-04T04:40:58;22.98;;;11.43;;
60336;SDS011;46978;50.288;28.624;2022-11-04T04:42:02;22.91;;;11.15;;
60336;SDS011;46978;50.288;28.624;2022-11-04T04:43:04;23.05;;;11.55;;
60336;SDS011;46978;50.288;28.624;2022-11-04T04:45:29;21.54;;;10.47;;
60336;SDS011;46978;50.288;28.624;2022-11-04T04:46:34;20.16;;;10.94;;
60336;SDS011;46978;50.288;28.624;2022-11-04T04:48:43;25.12;;;11.38;;
60336;SDS011;46978;50.288;28.624;2022-11-04T04:49:51;21.37;;;11.51;;
60336;SDS011;46978;50.288;28.624;2022-11-04T04:50:57;24.56;;;11.28;;
60336;SDS011;46978;50.288;28.624;2022-11-04T04:52:00;28.41;;;11.80;;
60336;SDS011;46978;50.288;28.624;2022-11-04T04:53:03;27.23;;;11.89;;
60336;SDS011;46978;50.288;28.624;2022-11-04T04:54:05;23.39;;;10.99;;
60336;SDS011;46978;50.288;28.624;2022-11-04T04:55:08;27.10;;;11.51;;
60336;SDS011;46978;50.288;28.624;2022-11-04T04:56:11;24.29;;;11.24;;
60336;SDS011;46978;50.288;28.624;2022-11-04T04:57:13;27.59;;;10.99;;
60336;SDS011;46978;50.288;28.624;2022-11-04T04:58:15;23.83;;;10.89;;
60336;SDS011;46978;50.288;28.624;2022-11-04T04:59:16;28.44;;;11.73;;
60336;SDS011;46978;50.288;28.624;2022-11-04T05:00:19;25.83;;;11.08;;
60336;SDS011;46978;50.288;28.624;2022-11-04T05:01:21;24.65;;;10.39;;
60336;SDS011;46978;50.288;28.624;2022-11-04T05:02:23;20.03;;;10.03;;
60336;SDS011;46978;50.288;28.624;2022-11-04T05:03:25;24.19;;;10.51;;
60336;SDS011;46978;50.288;28.624;2022-11-04T05:04:26;29.42;;;11.17;;
60336;SDS011;46978;50.288;28.624;2022-11-04T05:05:28;26.44;;;10.80;;
60336;SDS011;46978;50.288;28.624;2022-11-04T05:06:30;23.35;;;10.11;;
60336;SDS011;46978;50.288;28.624;2022-11-04T05:07:32;27.59;;;10.65;;
60336;SDS011;46978;50.288;28.624;2022-11-04T05:08:33;20.19;;;9.81;;
60336;SDS011;46978;50.288;28.624;2022-11-04T05:09:35;21.05;;;10.19;;
60336;SDS011;46978;50.288;28.624;2022-11-04T05:10:37;22.63;;;9.94;;
60336;SDS011;46978;50.288;28.624;2022-11-04T05:11:39;23.01;;;10.69;;
60336;SDS011;46978;50.288;28.624;2022-11-04T05:12:41;24.10;;;11.44;;
60336;SDS011;46978;50.288;28.624;2022-11-04T05:13:42;25.37;;;10.43;;
60336;SDS011;46978;50.288;28.624;2022-11-04T05:14:44;19.31;;;10.39;;
60336;SDS011;46978;50.288;28.624;2022-11-04T05:15:46;22.29;;;9.45;;
60336;SDS011;46978;50.288;28.624;2022-11-04T05:16:47;23.03;;;10.09;;
60336;SDS011;46978;50.288;28.624;2022-11-04T05:17:53;20.98;;;9.72;;
60336;SDS011;46978;50.288;28.624;2022-11-04T05:18:56;21.42;;;9.78;;
60336;SDS011;46978;50.288;28.624;2022-11-04T05:19:57;30.24;;;10.74;;
60336;SDS011;46978;50.288;28.624;2022-11-04T05:21:04;28.63;;;11.04;;
60336;SDS011;46978;50.288;28.624;2022-11-04T05:22:04;23.67;;;11.10;;
60336;SDS011;46978;50.288;28.624;2022-11-04T05:23:06;34.39;;;11.22;;
60336;SDS011;46978;50.288;28.624;2022-11-04T05:24:09;23.93;;;11.23;;
60336;SDS011;46978;50.288;28.624;2022-11-04T05:25:11;34.53;;;11.86;;
60336;SDS011;46978;50.288;28.624;2022-11-04T05:26:13;29.51;;;11.67;;
60336;SDS011;46978;50.288;28.624;2022-11-04T05:27:15;27.73;;;12.15;;
60336;SDS011;46978;50.288;28.624;2022-11-04T05:28:16;28.47;;;11.88;;
60336;SDS011;46978;50.288;28.624;2022-11-04T05:29:18;28.49;;;11.18;;
60336;SDS011;46978;50.288;28.624;2022-11-04T05:30:20;35.31;;;13.43;;
60336;SDS011;46978;50.288;28.624;2022-11-04T05:31:22;45.35;;;13.12;;
60336;SDS011;46978;50.288;28.624;2022-11-04T05:32:24;26.19;;;12.10;;
60336;SDS011;46978;50.288;28.624;2022-11-04T05:33:25;31.53;;;13.61;;
60336;SDS011;46978;50.288;28.624;2022-11-04T05:34:27;40.03;;;13.98;;
60336;SDS011;46978;50.288;28.624;2022-11-04T05:35:29;29.88;;;11.93;;
60336;SDS011;46978;50.288;28.624;2022-11-04T05:36:31;32.89;;;12.96;;
60336;SDS011;46978;50.288;28.624;2022-11-04T05:37:33;37.43;;;12.03;;
60336;SDS011;46978;50.288;28.624;2022-11-04T05:38:35;37.39;;;12.69;;
60336;SDS011;46978;50.288;28.624;2022-11-04T05:39:37;33.61;;;12.32;;
60336;SDS011;46978;50.288;28.624;2022-11-04T05:40:39;44.49;;;12.21;;
60336;SDS011;46978;50.288;28.624;2022-11-04T05:41:40;36.78;;;12.32;;
60336;SDS011;46978;50.288;28.624;2022-11-04T05:42:42;36.22;;;12.82;;
60336;SDS011;46978;50.288;28.624;2022-11-04T05:43:43;33.29;;;12.31;;
60336;SDS011;46978;50.288;28.624;2022-11-04T05:44:45;30.03;;;11.49;;
60336;SDS011;46978;50.288;28.624;2022-11-04T05:45:47;30.66;;;11.75;;
60336;SDS011;46978;50.288;28.624;2022-11-04T05:46:48;29.06;;;10.84;;
60336;SDS011;46978;50.288;28.624;2022-11-04T05:48:00;22.71;;;10.12;;
60336;SDS011;46978;50.288;28.624;2022-11-04T05:49:00;28.30;;;9.82;;
60336;SDS011;46978;50.288;28.624;2022-11-04T05:50:02;26.61;;;10.26;;
60336;SDS011;46978;50.288;28.624;2022-11-04T05:51:05;21.59;;;8.63;;
60336;SDS011;46978;50.288;28.624;2022-11-04T05:52:06;28.79;;;10.29;;
60336;SDS011;46978;50.288;28.624;2022-11-04T05:53:08;35.86;;;11.50;;
60336;SDS011;46978;50.288;28.624;2022-11-04T05:54:10;29.72;;;11.24;;
60336;SDS011;46978;50.288;28.624;2022-11-04T05:55:11;28.33;;;10.27;;
60336;SDS011;46978;50.288;28.624;2022-11-04T05:56:13;27.15;;;10.35;;
60336;SDS011;46978;50.288;28.624;2022-11-04T05:57:15;29.90;;;10.57;;
60336;SDS011;46978;50.288;28.624;2022-11-04T05:58:17;35.95;;;10.86;;
60336;SDS011;46978;50.288;28.624;2022-11-04T05:59:18;36.10;;;11.15;;
60336;SDS011;46978;50.288;28.624;2022-11-04T06:00:20;54.02;;;13.11;;
60336;SDS011;46978;50.288;28.624;2022-11-04T06:01:27;22.63;;;9.33;;
60336;SDS011;46978;50.288;28.624;2022-11-04T06:02:30;27.66;;;9.69;;
60336;SDS011;46978;50.288;28.624;2022-11-04T06:03:32;40.38;;;11.57;;
60336;SDS011;46978;50.288;28.624;2022-11-04T06:04:34;41.26;;;10.96;;
60336;SDS011;46978;50.288;28.624;2022-11-04T06:05:35;21.24;;;8.85;;
60336;SDS011;46978;50.288;28.624;2022-11-04T06:06:37;28.99;;;10.01;;
60336;SDS011;46978;50.288;28.624;2022-11-04T06:07:39;27.59;;;9.82;;
60336;SDS011;46978;50.288;28.624;2022-11-04T06:08:41;32.50;;;10.59;;
60336;SDS011;46978;50.288;28.624;2022-11-04T06:09:42;36.66;;;11.14;;
60336;SDS011;46978;50.288;28.624;2022-11-04T06:10:44;24.19;;;10.76;;
60336;SDS011;46978;50.288;28.624;2022-11-04T06:11:46;40.09;;;12.04;;
60336;SDS011;46978;50.288;28.624;2022-11-04T06:12:47;21.26;;;10.00;;
60336;SDS011;46978;50.288;28.624;2022-11-04T06:13:49;32.07;;;11.64;;
60336;SDS011;46978;50.288;28.624;2022-11-04T06:14:50;30.76;;;11.54;;
60336;SDS011;46978;50.288;28.624;2022-11-04T06:15:52;21.79;;;9.79;;
60336;SDS011;46978;50.288;28.624;2022-11-04T06:16:54;28.01;;;10.33;;
60336;SDS011;46978;50.288;28.624;2022-11-04T06:17:56;20.77;;;10.37;;
60336;SDS011;46978;50.288;28.624;2022-11-04T06:18:58;24.20;;;9.75;;
60336;SDS011;46978;50.288;28.624;2022-11-04T06:20:00;19.82;;;9.13;;
60336;SDS011;46978;50.288;28.624;2022-11-04T06:22:19;19.25;;;8.33;;
60336;SDS011;46978;50.288;28.624;2022-11-04T06:23:20;20.51;;;8.03;;
60336;SDS011;46978;50.288;28.624;2022-11-04T06:24:22;19.86;;;8.49;;
60336;SDS011;46978;50.288;28.624;2022-11-04T06:25:24;21.52;;;8.38;;
60336;SDS011;46978;50.288;28.624;2022-11-04T06:26:26;28.61;;;9.27;;
60336;SDS011;46978;50.288;28.624;2022-11-04T06:27:29;18.02;;;7.83;;
60336;SDS011;46978;50.288;28.624;2022-11-04T06:28:31;17.61;;;7.91;;
60336;SDS011;46978;50.288;28.624;2022-11-04T06:29:33;19.97;;;8.25;;
60336;SDS011;46978;50.288;28.624;2022-11-04T06:30:35;26.86;;;8.83;;
60336;SDS011;46978;50.288;28.624;2022-11-04T06:31:37;30.45;;;9.59;;
60336;SDS011;46978;50.288;28.624;2022-11-04T06:32:38;24.35;;;9.14;;
60336;SDS011;46978;50.288;28.624;2022-11-04T06:33:40;29.50;;;10.51;;
60336;SDS011;46978;50.288;28.624;2022-11-04T06:34:42;27.15;;;9.76;;
60336;SDS011;46978;50.288;28.624;2022-11-04T06:35:44;39.47;;;11.33;;
60336;SDS011;46978;50.288;28.624;2022-11-04T06:36:47;29.67;;;9.41;;
60336;SDS011;46978;50.288;28.624;2022-11-04T06:37:49;40.21;;;10.04;;
60336;SDS011;46978;50.288;28.624;2022-11-04T06:38:51;29.94;;;8.99;;
60336;SDS011;46978;50.288;28.624;2022-11-04T06:39:52;53.62;;;10.72;;
60336;SDS011;46978;50.288;28.624;2022-11-04T06:40:54;27.35;;;9.14;;
60336;SDS011;46978;50.288;28.624;2022-11-04T06:41:56;51.23;;;12.21;;
60336;SDS011;46978;50.288;28.624;2022-11-04T06:42:58;51.45;;;10.41;;
60336;SDS011;46978;50.288;28.624;2022-11-04T06:43:59;42.76;;;10.99;;
60336;SDS011;46978;50.288;28.624;2022-11-04T06:45:01;64.36;;;11.18;;
60336;SDS011;46978;50.288;28.624;2022-11-04T06:46:03;26.77;;;9.06;;
60336;SDS011;46978;50.288;28.624;2022-11-04T06:47:05;23.82;;;9.11;;
60336;SDS011;46978;50.288;28.624;2022-11-04T06:48:08;39.36;;;10.51;;
60336;SDS011;46978;50.288;28.624;2022-11-04T06:49:13;19.42;;;7.98;;